sensor_id;sensor_type;location;lat;lon;timestamp;temperature;humidity
23116;DHT22;11727;52.134;5.052;2023-02-10T00:00:04;2.30;99.90
23116;DHT22;11727;52.134;5.052;2023-02-10T00:02:30;2.30;99.90
23116;DHT22;11727;52.134;5.052;2023-02-10T00:04:56;2.20;99.90
23116;DHT22;11727;52.134;5.052;2023-02-10T00:07:22;2.20;99.90
23116;DHT22;11727;52.134;5.052;2023-02-10T00:09:48;2.20;99.90
23116;DHT22;11727;52.134;5.052;2023-02-10T00:12:14;2.10;99.90
23116;DHT22;11727;52.134;5.052;2023-02-10T00:14:40;2.00;99.90
23116;DHT22;11727;52.134;5.052;2023-02-10T00:17:06;2.00;99.90
23116;DHT22;11727;52.134;5.052;2023-02-10T00:19:31;2.00;99.90
23116;DHT22;11727;52.134;5.052;2023-02-10T00:21:59;2.00;99.90
23116;DHT22;11727;52.134;5.052;2023-02-10T00:24:25;2.00;99.90
23116;DHT22;11727;52.134;5.052;2023-02-10T00:26:51;2.00;99.90
23116;DHT22;11727;52.134;5.052;2023-02-10T00:29:17;1.90;99.90
23116;DHT22;11727;52.134;5.052;2023-02-10T00:31:43;1.90;99.90
23116;DHT22;11727;52.134;5.052;2023-02-10T00:34:15;2.00;99.90
23116;DHT22;11727;52.134;5.052;2023-02-10T00:36:41;2.00;99.90
23116;DHT22;11727;52.134;5.052;2023-02-10T00:39:07;2.00;99.90
23116;DHT22;11727;52.134;5.052;2023-02-10T00:41:32;2.00;99.90
23116;DHT22;11727;52.134;5.052;2023-02-10T00:43:58;2.00;99.90
23116;DHT22;11727;52.134;5.052;2023-02-10T00:46:24;2.00;99.90
23116;DHT22;11727;52.134;5.052;2023-02-10T00:48:49;2.00;99.90
23116;DHT22;11727;52.134;5.052;2023-02-10T00:51:16;2.00;99.90
23116;DHT22;11727;52.134;5.052;2023-02-10T00:53:42;1.90;99.90
23116;DHT22;11727;52.134;5.052;2023-02-10T00:56:09;1.90;99.90
23116;DHT22;11727;52.134;5.052;2023-02-10T00:58:35;1.90;99.90
23116;DHT22;11727;52.134;5.052;2023-02-10T01:01:01;1.90;99.90
23116;DHT22;11727;52.134;5.052;2023-02-10T01:03:27;1.90;99.90
23116;DHT22;11727;52.134;5.052;2023-02-10T01:05:53;1.90;99.90
23116;DHT22;11727;52.134;5.052;2023-02-10T01:08:18;1.90;99.90
23116;DHT22;11727;52.134;5.052;2023-02-10T01:10:44;1.90;99.90
23116;DHT22;11727;52.134;5.052;2023-02-10T01:13:12;1.90;99.90
23116;DHT22;11727;52.134;5.052;2023-02-10T01:15:46;1.90;99.90
23116;DHT22;11727;52.134;5.052;2023-02-10T01:18:11;1.90;99.90
23116;DHT22;11727;52.134;5.052;2023-02-10T01:20:41;1.90;99.90
23116;DHT22;11727;52.134;5.052;2023-02-10T01:23:08;1.90;99.90
23116;DHT22;11727;52.134;5.052;2023-02-10T01:25:34;1.90;99.90
23116;DHT22;11727;52.134;5.052;2023-02-10T01:28:01;1.80;99.90
23116;DHT22;11727;52.134;5.052;2023-02-10T01:30:26;1.80;99.90
23116;DHT22;11727;52.134;5.052;2023-02-10T01:32:53;1.80;99.90
23116;DHT22;11727;52.134;5.052;2023-02-10T01:35:19;1.80;99.90
23116;DHT22;11727;52.134;5.052;2023-02-10T01:37:44;1.80;99.90
23116;DHT22;11727;52.134;5.052;2023-02-10T01:40:10;1.80;99.90
23116;DHT22;11727;52.134;5.052;2023-02-10T01:42:36;1.80;99.90
23116;DHT22;11727;52.134;5.052;2023-02-10T01:45:17;1.70;99.90
23116;DHT22;11727;52.134;5.052;2023-02-10T01:47:44;1.80;99.90
23116;DHT22;11727;52.134;5.052;2023-02-10T01:50:19;1.80;99.90
23116;DHT22;11727;52.134;5.052;2023-02-10T01:52:45;1.90;99.90
23116;DHT22;11727;52.134;5.052;2023-02-10T01:55:17;1.80;99.90
23116;DHT22;11727;52.134;5.052;2023-02-10T01:57:44;1.80;99.90
23116;DHT22;11727;52.134;5.052;2023-02-10T02:00:12;1.80;99.90
23116;DHT22;11727;52.134;5.052;2023-02-10T02:02:39;1.80;99.90
23116;DHT22;11727;52.134;5.052;2023-02-10T02:08:10;1.80;99.90
23116;DHT22;11727;52.134;5.052;2023-02-10T02:11:10;1.80;99.90
23116;DHT22;11727;52.134;5.052;2023-02-10T02:13:58;1.80;99.90
23116;DHT22;11727;52.134;5.052;2023-02-10T02:17:11;1.70;99.90
23116;DHT22;11727;52.134;5.052;2023-02-10T02:24:58;1.70;99.90
23116;DHT22;11727;52.134;5.052;2023-02-10T02:27:55;1.70;99.90
23116;DHT22;11727;52.134;5.052;2023-02-10T02:33:32;1.70;99.90
23116;DHT22;11727;52.134;5.052;2023-02-10T02:36:09;1.60;99.90
23116;DHT22;11727;52.134;5.052;2023-02-10T02:38:40;1.60;99.90
23116;DHT22;11727;52.134;5.052;2023-02-10T02:41:07;1.60;99.90
23116;DHT22;11727;52.134;5.052;2023-02-10T02:43:32;1.50;99.90
23116;DHT22;11727;52.134;5.052;2023-02-10T02:48:35;1.50;99.90
23116;DHT22;11727;52.134;5.052;2023-02-10T02:51:31;1.60;99.90
23116;DHT22;11727;52.134;5.052;2023-02-10T02:56:37;1.70;99.90
23116;DHT22;11727;52.134;5.052;2023-02-10T03:01:57;1.70;99.90
23116;DHT22;11727;52.134;5.052;2023-02-10T03:04:27;1.70;99.90
23116;DHT22;11727;52.134;5.052;2023-02-10T03:06:54;1.60;99.90
23116;DHT22;11727;52.134;5.052;2023-02-10T03:09:20;1.60;99.90
23116;DHT22;11727;52.134;5.052;2023-02-10T03:11:46;1.60;99.90
23116;DHT22;11727;52.134;5.052;2023-02-10T03:14:11;1.60;99.90
23116;DHT22;11727;52.134;5.052;2023-02-10T03:16:37;1.60;99.90
23116;DHT22;11727;52.134;5.052;2023-02-10T03:19:03;1.50;99.90
23116;DHT22;11727;52.134;5.052;2023-02-10T03:21:28;1.50;99.90
23116;DHT22;11727;52.134;5.052;2023-02-10T03:23:54;1.50;99.90
23116;DHT22;11727;52.134;5.052;2023-02-10T03:26:19;1.50;99.90
23116;DHT22;11727;52.134;5.052;2023-02-10T03:28:45;1.50;99.90
23116;DHT22;11727;52.134;5.052;2023-02-10T03:31:11;1.40;99.90
23116;DHT22;11727;52.134;5.052;2023-02-10T03:33:36;1.40;99.90
23116;DHT22;11727;52.134;5.052;2023-02-10T03:36:02;1.40;99.90
23116;DHT22;11727;52.134;5.052;2023-02-10T03:38:28;1.30;99.90
23116;DHT22;11727;52.134;5.052;2023-02-10T03:40:54;1.30;99.90
23116;DHT22;11727;52.134;5.052;2023-02-10T03:43:20;1.30;99.90
23116;DHT22;11727;52.134;5.052;2023-02-10T03:45:46;1.30;99.90
23116;DHT22;11727;52.134;5.052;2023-02-10T03:48:13;1.30;99.90
23116;DHT22;11727;52.134;5.052;2023-02-10T03:50:39;1.30;99.90
23116;DHT22;11727;52.134;5.052;2023-02-10T03:53:04;1.30;99.90
23116;DHT22;11727;52.134;5.052;2023-02-10T03:55:30;1.30;99.90
23116;DHT22;11727;52.134;5.052;2023-02-10T03:57:56;1.30;99.90
23116;DHT22;11727;52.134;5.052;2023-02-10T04:00:22;1.30;99.90
23116;DHT22;11727;52.134;5.052;2023-02-10T04:02:48;1.30;99.90
23116;DHT22;11727;52.134;5.052;2023-02-10T04:05:13;1.30;99.90
23116;DHT22;11727;52.134;5.052;2023-02-10T04:07:39;1.30;99.90
23116;DHT22;11727;52.134;5.052;2023-02-10T04:10:05;1.30;99.90
23116;DHT22;11727;52.134;5.052;2023-02-10T04:12:31;1.30;99.90
23116;DHT22;11727;52.134;5.052;2023-02-10T04:14:57;1.30;99.90
23116;DHT22;11727;52.134;5.052;2023-02-10T04:17:22;1.30;99.90
23116;DHT22;11727;52.134;5.052;2023-02-10T04:19:48;1.40;99.90
23116;DHT22;11727;52.134;5.052;2023-02-10T04:22:14;1.40;99.90
23116;DHT22;11727;52.134;5.052;2023-02-10T04:24:39;1.40;99.90
23116;DHT22;11727;52.134;5.052;2023-02-10T04:27:05;1.40;99.90
23116;DHT22;11727;52.134;5.052;2023-02-10T04:29:31;1.40;99.90
23116;DHT22;11727;52.134;5.052;2023-02-10T04:31:57;1.40;99.90
23116;DHT22;11727;52.134;5.052;2023-02-10T04:34:22;1.40;99.90
23116;DHT22;11727;52.134;5.052;2023-02-10T04:36:48;1.40;99.90
23116;DHT22;11727;52.134;5.052;2023-02-10T04:39:13;1.40;99.90
23116;DHT22;11727;52.134;5.052;2023-02-10T04:41:39;1.40;99.90
23116;DHT22;11727;52.134;5.052;2023-02-10T04:44:05;1.40;99.90
23116;DHT22;11727;52.134;5.052;2023-02-10T04:46:31;1.40;99.90
23116;DHT22;11727;52.134;5.052;2023-02-10T04:48:57;1.40;99.90
23116;DHT22;11727;52.134;5.052;2023-02-10T04:51:22;1.40;99.90
23116;DHT22;11727;52.134;5.052;2023-02-10T04:53:48;1.40;99.90
23116;DHT22;11727;52.134;5.052;2023-02-10T04:56:14;1.30;99.90
23116;DHT22;11727;52.134;5.052;2023-02-10T04:58:41;1.40;99.90
23116;DHT22;11727;52.134;5.052;2023-02-10T05:01:07;1.30;99.90
23116;DHT22;11727;52.134;5.052;2023-02-10T05:03:33;1.30;99.90
23116;DHT22;11727;52.134;5.052;2023-02-10T05:05:59;1.30;99.90
23116;DHT22;11727;52.134;5.052;2023-02-10T05:08:24;1.30;99.90
23116;DHT22;11727;52.134;5.052;2023-02-10T05:10:51;1.30;99.90
23116;DHT22;11727;52.134;5.052;2023-02-10T05:13:17;1.30;99.90
23116;DHT22;11727;52.134;5.052;2023-02-10T05:15:43;1.30;99.90
23116;DHT22;11727;52.134;5.052;2023-02-10T05:18:09;1.30;99.90
23116;DHT22;11727;52.134;5.052;2023-02-10T05:20:34;1.30;99.90
23116;DHT22;11727;52.134;5.052;2023-02-10T05:23:00;1.30;99.90
23116;DHT22;11727;52.134;5.052;2023-02-10T05:25:26;1.30;99.90
23116;DHT22;11727;52.134;5.052;2023-02-10T05:27:52;1.30;99.90
23116;DHT22;11727;52.134;5.052;2023-02-10T05:30:17;1.30;99.90
23116;DHT22;11727;52.134;5.052;2023-02-10T05:32:43;1.30;99.90
23116;DHT22;11727;52.134;5.052;2023-02-10T05:35:10;1.30;99.90
23116;DHT22;11727;52.134;5.052;2023-02-10T05:37:36;1.30;99.90
23116;DHT22;11727;52.134;5.052;2023-02-10T05:40:02;1.30;99.90
23116;DHT22;11727;52.134;5.052;2023-02-10T05:42:28;1.30;99.90
23116;DHT22;11727;52.134;5.052;2023-02-10T05:44:53;1.30;99.90
23116;DHT22;11727;52.134;5.052;2023-02-10T05:47:19;1.30;99.90
23116;DHT22;11727;52.134;5.052;2023-02-10T05:49:44;1.30;99.90
23116;DHT22;11727;52.134;5.052;2023-02-10T05:52:10;1.30;99.90
23116;DHT22;11727;52.134;5.052;2023-02-10T05:54:36;1.30;99.90
23116;DHT22;11727;52.134;5.052;2023-02-10T05:57:02;1.30;99.90
23116;DHT22;11727;52.134;5.052;2023-02-10T05:59:28;1.20;99.90
23116;DHT22;11727;52.134;5.052;2023-02-10T06:01:54;1.20;99.90
23116;DHT22;11727;52.134;5.052;2023-02-10T06:04:19;1.20;99.90
23116;DHT22;11727;52.134;5.052;2023-02-10T06:06:45;1.20;99.90
23116;DHT22;11727;52.134;5.052;2023-02-10T06:09:10;1.20;99.90
23116;DHT22;11727;52.134;5.052;2023-02-10T06:11:36;1.20;99.90
23116;DHT22;11727;52.134;5.052;2023-02-10T06:14:02;1.20;99.90
23116;DHT22;11727;52.134;5.052;2023-02-10T06:16:27;1.10;99.90
23116;DHT22;11727;52.134;5.052;2023-02-10T06:18:53;1.20;99.90
23116;DHT22;11727;52.134;5.052;2023-02-10T06:21:19;1.10;99.90
23116;DHT22;11727;52.134;5.052;2023-02-10T06:23:46;1.10;99.90
23116;DHT22;11727;52.134;5.052;2023-02-10T06:26:11;1.10;99.90
23116;DHT22;11727;52.134;5.052;2023-02-10T06:28:37;1.10;99.90
23116;DHT22;11727;52.134;5.052;2023-02-10T06:31:03;1.00;99.90
23116;DHT22;11727;52.134;5.052;2023-02-10T06:33:28;1.00;99.90
23116;DHT22;11727;52.134;5.052;2023-02-10T06:35:54;0.90;99.90
23116;DHT22;11727;52.134;5.052;2023-02-10T06:38:20;0.90;99.90
23116;DHT22;11727;52.134;5.052;2023-02-10T06:40:45;0.90;99.90
23116;DHT22;11727;52.134;5.052;2023-02-10T06:43:11;0.90;99.90
23116;DHT22;11727;52.134;5.052;2023-02-10T06:45:37;0.80;99.90
23116;DHT22;11727;52.134;5.052;2023-02-10T06:48:03;0.80;99.90
23116;DHT22;11727;52.134;5.052;2023-02-10T06:50:29;0.80;99.90
23116;DHT22;11727;52.134;5.052;2023-02-10T06:52:54;0.70;99.90
23116;DHT22;11727;52.134;5.052;2023-02-10T06:55:20;0.70;99.90
23116;DHT22;11727;52.134;5.052;2023-02-10T06:57:46;0.70;99.90
23116;DHT22;11727;52.134;5.052;2023-02-10T07:00:13;0.70;99.90
23116;DHT22;11727;52.134;5.052;2023-02-10T07:02:39;0.70;99.90
23116;DHT22;11727;52.134;5.052;2023-02-10T07:05:06;0.60;99.90
23116;DHT22;11727;52.134;5.052;2023-02-10T07:07:34;0.60;99.90
23116;DHT22;11727;52.134;5.052;2023-02-10T07:09:59;0.60;99.90
23116;DHT22;11727;52.134;5.052;2023-02-10T07:12:25;0.70;99.90
23116;DHT22;11727;52.134;5.052;2023-02-10T07:14:51;0.60;99.90
23116;DHT22;11727;52.134;5.052;2023-02-10T07:17:18;0.70;99.90
23116;DHT22;11727;52.134;5.052;2023-02-10T07:19:43;0.70;99.90
23116;DHT22;11727;52.134;5.052;2023-02-10T07:22:09;0.70;99.90
23116;DHT22;11727;52.134;5.052;2023-02-10T07:24:35;0.70;99.90
23116;DHT22;11727;52.134;5.052;2023-02-10T07:27:01;0.80;99.90
23116;DHT22;11727;52.134;5.052;2023-02-10T07:29:27;0.80;99.90
23116;DHT22;11727;52.134;5.052;2023-02-10T07:31:53;0.80;99.90
23116;DHT22;11727;52.134;5.052;2023-02-10T07:34:19;0.90;99.90
23116;DHT22;11727;52.134;5.052;2023-02-10T07:40:08;0.90;99.90
23116;DHT22;11727;52.134;5.052;2023-02-10T07:45:45;0.90;99.90
23116;DHT22;11727;52.134;5.052;2023-02-10T07:55:54;0.90;99.90
23116;DHT22;11727;52.134;5.052;2023-02-10T07:58:22;0.80;99.90
23116;DHT22;11727;52.134;5.052;2023-02-10T08:00:48;0.80;99.90
23116;DHT22;11727;52.134;5.052;2023-02-10T08:03:14;0.80;99.90
23116;DHT22;11727;52.134;5.052;2023-02-10T08:05:40;0.80;99.90
23116;DHT22;11727;52.134;5.052;2023-02-10T08:08:08;0.90;99.90
23116;DHT22;11727;52.134;5.052;2023-02-10T08:10:34;0.80;99.90
23116;DHT22;11727;52.134;5.052;2023-02-10T08:13:01;0.80;99.90
23116;DHT22;11727;52.134;5.052;2023-02-10T08:15:27;0.80;99.90
23116;DHT22;11727;52.134;5.052;2023-02-10T08:17:52;0.80;99.90
23116;DHT22;11727;52.134;5.052;2023-02-10T08:20:21;0.80;99.90
23116;DHT22;11727;52.134;5.052;2023-02-10T08:22:46;0.80;99.90
23116;DHT22;11727;52.134;5.052;2023-02-10T08:25:12;0.80;99.90
23116;DHT22;11727;52.134;5.052;2023-02-10T08:27:38;0.80;99.90
23116;DHT22;11727;52.134;5.052;2023-02-10T08:30:04;0.90;99.90
23116;DHT22;11727;52.134;5.052;2023-02-10T08:32:31;0.80;99.90
23116;DHT22;11727;52.134;5.052;2023-02-10T08:34:56;0.80;99.90
23116;DHT22;11727;52.134;5.052;2023-02-10T08:37:23;0.80;99.90
23116;DHT22;11727;52.134;5.052;2023-02-10T08:39:49;0.90;99.90
23116;DHT22;11727;52.134;5.052;2023-02-10T08:42:15;0.90;99.90
23116;DHT22;11727;52.134;5.052;2023-02-10T08:44:40;0.90;99.90
23116;DHT22;11727;52.134;5.052;2023-02-10T08:47:06;1.00;99.90
23116;DHT22;11727;52.134;5.052;2023-02-10T08:49:32;1.10;99.90
23116;DHT22;11727;52.134;5.052;2023-02-10T08:51:57;1.10;99.90
23116;DHT22;11727;52.134;5.052;2023-02-10T08:54:23;1.20;99.90
23116;DHT22;11727;52.134;5.052;2023-02-10T08:56:53;1.20;99.90
23116;DHT22;11727;52.134;5.052;2023-02-10T08:59:19;1.20;99.90
23116;DHT22;11727;52.134;5.052;2023-02-10T09:01:44;1.30;99.90
23116;DHT22;11727;52.134;5.052;2023-02-10T09:04:10;1.30;99.90
23116;DHT22;11727;52.134;5.052;2023-02-10T09:06:38;1.40;99.90
23116;DHT22;11727;52.134;5.052;2023-02-10T09:09:09;1.50;99.90
23116;DHT22;11727;52.134;5.052;2023-02-10T09:11:35;1.50;99.90
23116;DHT22;11727;52.134;5.052;2023-02-10T09:14:01;1.60;99.90
23116;DHT22;11727;52.134;5.052;2023-02-10T09:16:26;1.70;99.90
23116;DHT22;11727;52.134;5.052;2023-02-10T09:18:52;1.70;99.90
23116;DHT22;11727;52.134;5.052;2023-02-10T09:21:18;1.80;99.90
23116;DHT22;11727;52.134;5.052;2023-02-10T09:23:43;1.80;99.90
23116;DHT22;11727;52.134;5.052;2023-02-10T09:26:09;1.90;99.90
23116;DHT22;11727;52.134;5.052;2023-02-10T09:28:35;2.00;99.90
23116;DHT22;11727;52.134;5.052;2023-02-10T09:31:04;2.00;99.90
23116;DHT22;11727;52.134;5.052;2023-02-10T09:33:30;2.00;99.90
23116;DHT22;11727;52.134;5.052;2023-02-10T09:35:56;2.10;99.90
23116;DHT22;11727;52.134;5.052;2023-02-10T09:38:22;2.20;99.90
23116;DHT22;11727;52.134;5.052;2023-02-10T09:41:13;2.20;99.90
23116;DHT22;11727;52.134;5.052;2023-02-10T09:54:48;2.70;99.90
23116;DHT22;11727;52.134;5.052;2023-02-10T09:57:20;2.70;99.90
23116;DHT22;11727;52.134;5.052;2023-02-10T09:59:49;2.70;99.90
23116;DHT22;11727;52.134;5.052;2023-02-10T10:04:52;2.80;99.90
23116;DHT22;11727;52.134;5.052;2023-02-10T10:07:31;2.80;99.90
23116;DHT22;11727;52.134;5.052;2023-02-10T10:12:45;2.80;99.90
23116;DHT22;11727;52.134;5.052;2023-02-10T10:15:15;2.90;99.90
23116;DHT22;11727;52.134;5.052;2023-02-10T10:20:38;2.80;99.90
23116;DHT22;11727;52.134;5.052;2023-02-10T10:26:07;2.80;99.90
23116;DHT22;11727;52.134;5.052;2023-02-10T10:31:32;2.80;99.90
23116;DHT22;11727;52.134;5.052;2023-02-10T10:34:12;2.80;99.90
23116;DHT22;11727;52.134;5.052;2023-02-10T10:36:46;2.90;99.90
23116;DHT22;11727;52.134;5.052;2023-02-10T10:39:34;2.90;99.90
23116;DHT22;11727;52.134;5.052;2023-02-10T10:44:41;3.10;99.90
23116;DHT22;11727;52.134;5.052;2023-02-10T10:47:44;3.20;99.90
23116;DHT22;11727;52.134;5.052;2023-02-10T10:50:19;3.30;99.90
23116;DHT22;11727;52.134;5.052;2023-02-10T10:52:46;3.40;99.90
23116;DHT22;11727;52.134;5.052;2023-02-10T10:55:32;3.50;99.90
23116;DHT22;11727;52.134;5.052;2023-02-10T10:58:03;3.60;99.90
23116;DHT22;11727;52.134;5.052;2023-02-10T11:00:33;3.70;99.90
23116;DHT22;11727;52.134;5.052;2023-02-10T11:03:01;3.80;99.90
23116;DHT22;11727;52.134;5.052;2023-02-10T11:05:33;3.90;99.90
23116;DHT22;11727;52.134;5.052;2023-02-10T11:08:01;4.00;99.90
23116;DHT22;11727;52.134;5.052;2023-02-10T11:10:51;4.10;99.90
23116;DHT22;11727;52.134;5.052;2023-02-10T11:13:23;4.30;99.90
23116;DHT22;11727;52.134;5.052;2023-02-10T11:16:11;4.40;99.90
23116;DHT22;11727;52.134;5.052;2023-02-10T11:18:50;4.50;99.90
23116;DHT22;11727;52.134;5.052;2023-02-10T11:21:16;4.50;99.90
23116;DHT22;11727;52.134;5.052;2023-02-10T11:26:23;4.70;99.90
23116;DHT22;11727;52.134;5.052;2023-02-10T11:28:50;4.80;99.90
23116;DHT22;11727;52.134;5.052;2023-02-10T11:31:28;4.90;99.90
23116;DHT22;11727;52.134;5.052;2023-02-10T11:33:57;5.10;99.90
23116;DHT22;11727;52.134;5.052;2023-02-10T11:36:50;5.30;99.90
23116;DHT22;11727;52.134;5.052;2023-02-10T11:39:24;5.40;99.90
23116;DHT22;11727;52.134;5.052;2023-02-10T11:41:51;5.60;99.90
23116;DHT22;11727;52.134;5.052;2023-02-10T11:44:31;5.70;99.90
23116;DHT22;11727;52.134;5.052;2023-02-10T11:47:20;5.80;99.90
23116;DHT22;11727;52.134;5.052;2023-02-10T11:49:47;6.00;99.90
23116;DHT22;11727;52.134;5.052;2023-02-10T11:52:16;6.20;99.90
23116;DHT22;11727;52.134;5.052;2023-02-10T11:54:43;6.20;99.90
23116;DHT22;11727;52.134;5.052;2023-02-10T12:00:32;6.50;99.90
23116;DHT22;11727;52.134;5.052;2023-02-10T12:06:18;6.70;99.90
23116;DHT22;11727;52.134;5.052;2023-02-10T12:09:05;6.70;99.90
23116;DHT22;11727;52.134;5.052;2023-02-10T12:11:43;6.70;99.90
23116;DHT22;11727;52.134;5.052;2023-02-10T12:20:01;6.90;99.90
23116;DHT22;11727;52.134;5.052;2023-02-10T12:25:26;7.00;99.90
23116;DHT22;11727;52.134;5.052;2023-02-10T12:28:24;7.20;99.90
23116;DHT22;11727;52.134;5.052;2023-02-10T12:31:00;7.40;99.90
23116;DHT22;11727;52.134;5.052;2023-02-10T12:36:50;7.50;99.90
23116;DHT22;11727;52.134;5.052;2023-02-10T12:39:28;7.60;99.90
23116;DHT22;11727;52.134;5.052;2023-02-10T12:50:26;7.70;99.90
23116;DHT22;11727;52.134;5.052;2023-02-10T12:56:21;7.70;99.90
23116;DHT22;11727;52.134;5.052;2023-02-10T12:58:54;7.60;99.90
23116;DHT22;11727;52.134;5.052;2023-02-10T13:01:35;7.60;99.90
23116;DHT22;11727;52.134;5.052;2023-02-10T13:09:53;7.50;99.90
23116;DHT22;11727;52.134;5.052;2023-02-10T13:12:27;7.60;99.90
23116;DHT22;11727;52.134;5.052;2023-02-10T13:15:04;7.60;99.90
23116;DHT22;11727;52.134;5.052;2023-02-10T13:17:52;7.70;99.90
23116;DHT22;11727;52.134;5.052;2023-02-10T13:20:44;7.80;99.90
23116;DHT22;11727;52.134;5.052;2023-02-10T13:23:40;7.90;99.90
23116;DHT22;11727;52.134;5.052;2023-02-10T13:34:23;8.40;99.90
23116;DHT22;11727;52.134;5.052;2023-02-10T13:39:35;8.60;99.90
23116;DHT22;11727;52.134;5.052;2023-02-10T13:42:37;8.60;99.90
23116;DHT22;11727;52.134;5.052;2023-02-10T13:45:16;8.70;99.90
23116;DHT22;11727;52.134;5.052;2023-02-10T14:00:47;8.40;99.90
23116;DHT22;11727;52.134;5.052;2023-02-10T14:06:00;8.40;99.90
23116;DHT22;11727;52.134;5.052;2023-02-10T14:10:59;8.40;99.90
23116;DHT22;11727;52.134;5.052;2023-02-10T14:13:28;8.50;99.90
23116;DHT22;11727;52.134;5.052;2023-02-10T14:16:07;8.50;99.90
23116;DHT22;11727;52.134;5.052;2023-02-10T14:18:35;8.50;99.90
23116;DHT22;11727;52.134;5.052;2023-02-10T14:21:12;8.50;99.90
23116;DHT22;11727;52.134;5.052;2023-02-10T14:23:47;8.50;99.90
23116;DHT22;11727;52.134;5.052;2023-02-10T14:26:19;8.50;99.90
23116;DHT22;11727;52.134;5.052;2023-02-10T14:28:53;8.50;99.90
23116;DHT22;11727;52.134;5.052;2023-02-10T14:31:23;8.50;99.90
23116;DHT22;11727;52.134;5.052;2023-02-10T14:33:57;8.60;99.90
23116;DHT22;11727;52.134;5.052;2023-02-10T14:36:25;8.70;99.90
23116;DHT22;11727;52.134;5.052;2023-02-10T14:38:55;8.80;99.90
23116;DHT22;11727;52.134;5.052;2023-02-10T14:41:22;8.80;99.90
23116;DHT22;11727;52.134;5.052;2023-02-10T14:43:48;8.70;99.90
23116;DHT22;11727;52.134;5.052;2023-02-10T14:46:20;8.60;99.90
23116;DHT22;11727;52.134;5.052;2023-02-10T14:48:46;8.50;99.90
23116;DHT22;11727;52.134;5.052;2023-02-10T14:51:20;8.40;99.90
23116;DHT22;11727;52.134;5.052;2023-02-10T14:53:46;8.30;99.90
23116;DHT22;11727;52.134;5.052;2023-02-10T14:56:21;8.20;99.90
23116;DHT22;11727;52.134;5.052;2023-02-10T14:58:47;8.20;99.90
23116;DHT22;11727;52.134;5.052;2023-02-10T15:01:24;8.00;99.90
23116;DHT22;11727;52.134;5.052;2023-02-10T15:03:51;7.90;99.90
23116;DHT22;11727;52.134;5.052;2023-02-10T15:06:22;7.70;99.90
23116;DHT22;11727;52.134;5.052;2023-02-10T15:09:05;7.60;99.90
23116;DHT22;11727;52.134;5.052;2023-02-10T15:11:38;7.50;99.90
23116;DHT22;11727;52.134;5.052;2023-02-10T15:14:29;7.50;99.90
23116;DHT22;11727;52.134;5.052;2023-02-10T15:17:05;7.50;99.90
23116;DHT22;11727;52.134;5.052;2023-02-10T15:19:31;7.50;99.90
23116;DHT22;11727;52.134;5.052;2023-02-10T15:21:57;7.50;99.90
23116;DHT22;11727;52.134;5.052;2023-02-10T15:24:31;7.50;99.90
23116;DHT22;11727;52.134;5.052;2023-02-10T15:27:17;7.40;99.90
23116;DHT22;11727;52.134;5.052;2023-02-10T15:29:43;7.40;99.90
23116;DHT22;11727;52.134;5.052;2023-02-10T15:32:21;7.30;99.90
23116;DHT22;11727;52.134;5.052;2023-02-10T15:34:48;7.30;99.90
23116;DHT22;11727;52.134;5.052;2023-02-10T15:37:24;7.30;99.90
23116;DHT22;11727;52.134;5.052;2023-02-10T15:39:59;7.20;99.90
23116;DHT22;11727;52.134;5.052;2023-02-10T15:42:31;7.20;99.90
23116;DHT22;11727;52.134;5.052;2023-02-10T15:45:15;7.20;99.90
23116;DHT22;11727;52.134;5.052;2023-02-10T15:47:46;7.20;99.90
23116;DHT22;11727;52.134;5.052;2023-02-10T15:50:13;7.20;99.90
23116;DHT22;11727;52.134;5.052;2023-02-10T15:52:47;7.20;99.90
23116;DHT22;11727;52.134;5.052;2023-02-10T15:55:21;7.20;99.90
23116;DHT22;11727;52.134;5.052;2023-02-10T15:57:49;7.10;99.90
23116;DHT22;11727;52.134;5.052;2023-02-10T16:00:24;7.10;99.90
23116;DHT22;11727;52.134;5.052;2023-02-10T16:02:50;7.10;99.90
23116;DHT22;11727;52.134;5.052;2023-02-10T16:05:16;7.10;99.90
23116;DHT22;11727;52.134;5.052;2023-02-10T16:07:43;7.10;99.90
23116;DHT22;11727;52.134;5.052;2023-02-10T16:10:21;7.10;99.90
23116;DHT22;11727;52.134;5.052;2023-02-10T16:12:47;7.10;99.90
23116;DHT22;11727;52.134;5.052;2023-02-10T16:15:15;7.10;99.90
23116;DHT22;11727;52.134;5.052;2023-02-10T16:17:43;7.00;99.90
23116;DHT22;11727;52.134;5.052;2023-02-10T16:20:30;7.00;99.90
23116;DHT22;11727;52.134;5.052;2023-02-10T16:22:56;7.00;99.90
23116;DHT22;11727;52.134;5.052;2023-02-10T16:25:25;7.00;99.90
23116;DHT22;11727;52.134;5.052;2023-02-10T16:27:52;6.90;99.90
23116;DHT22;11727;52.134;5.052;2023-02-10T16:30:23;6.90;99.90
23116;DHT22;11727;52.134;5.052;2023-02-10T16:32:50;6.90;99.90
23116;DHT22;11727;52.134;5.052;2023-02-10T16:35:16;6.90;99.90
23116;DHT22;11727;52.134;5.052;2023-02-10T16:37:42;6.90;99.90
23116;DHT22;11727;52.134;5.052;2023-02-10T16:40:08;6.90;99.90
23116;DHT22;11727;52.134;5.052;2023-02-10T16:42:37;6.90;99.90
23116;DHT22;11727;52.134;5.052;2023-02-10T16:45:03;6.90;99.90
23116;DHT22;11727;52.134;5.052;2023-02-10T16:47:28;6.90;99.90
23116;DHT22;11727;52.134;5.052;2023-02-10T16:49:54;6.90;99.90
23116;DHT22;11727;52.134;5.052;2023-02-10T16:52:20;6.80;99.90
23116;DHT22;11727;52.134;5.052;2023-02-10T16:54:49;6.80;99.90
23116;DHT22;11727;52.134;5.052;2023-02-10T16:57:14;6.80;99.90
23116;DHT22;11727;52.134;5.052;2023-02-10T16:59:40;6.80;99.90
23116;DHT22;11727;52.134;5.052;2023-02-10T17:02:06;6.80;99.90
23116;DHT22;11727;52.134;5.052;2023-02-10T17:04:31;6.80;99.90
23116;DHT22;11727;52.134;5.052;2023-02-10T17:06:57;6.80;99.90
23116;DHT22;11727;52.134;5.052;2023-02-10T17:09:24;6.80;99.90
23116;DHT22;11727;52.134;5.052;2023-02-10T17:11:51;6.80;99.90
23116;DHT22;11727;52.134;5.052;2023-02-10T17:14:17;6.80;99.90
23116;DHT22;11727;52.134;5.052;2023-02-10T17:16:44;6.80;99.90
23116;DHT22;11727;52.134;5.052;2023-02-10T17:19:13;6.90;99.90
23116;DHT22;11727;52.134;5.052;2023-02-10T17:21:39;6.90;99.90
23116;DHT22;11727;52.134;5.052;2023-02-10T17:24:05;6.90;99.90
23116;DHT22;11727;52.134;5.052;2023-02-10T17:26:31;6.90;99.90
23116;DHT22;11727;52.134;5.052;2023-02-10T17:28:56;6.90;99.90
23116;DHT22;11727;52.134;5.052;2023-02-10T17:31:23;6.90;99.90
23116;DHT22;11727;52.134;5.052;2023-02-10T17:33:50;6.90;99.90
23116;DHT22;11727;52.134;5.052;2023-02-10T17:36:20;6.90;99.90
23116;DHT22;11727;52.134;5.052;2023-02-10T17:38:46;6.80;99.90
23116;DHT22;11727;52.134;5.052;2023-02-10T17:41:12;6.80;99.90
23116;DHT22;11727;52.134;5.052;2023-02-10T17:43:38;6.80;99.90
23116;DHT22;11727;52.134;5.052;2023-02-10T17:46:04;6.70;99.90
23116;DHT22;11727;52.134;5.052;2023-02-10T17:48:29;6.70;99.90
23116;DHT22;11727;52.134;5.052;2023-02-10T17:51:02;6.70;99.90
23116;DHT22;11727;52.134;5.052;2023-02-10T17:53:28;6.70;99.90
23116;DHT22;11727;52.134;5.052;2023-02-10T17:55:54;6.70;99.90
23116;DHT22;11727;52.134;5.052;2023-02-10T17:58:19;6.70;99.90
23116;DHT22;11727;52.134;5.052;2023-02-10T18:00:45;6.70;99.90
23116;DHT22;11727;52.134;5.052;2023-02-10T18:03:11;6.70;99.90
23116;DHT22;11727;52.134;5.052;2023-02-10T18:05:40;6.70;99.90